createdAt,value
2023-05-04T00:00:26.433Z,83.33
2023-05-04T00:01:28.581Z,82.85
2023-05-04T00:02:30.464Z,82.80
2023-05-04T00:03:32.525Z,82.44
2023-05-04T00:04:34.528Z,82.50
2023-05-04T00:05:36.450Z,82.54
2023-05-04T00:06:38.594Z,83.01
2023-05-04T00:07:40.859Z,82.67
2023-05-04T00:08:42.694Z,82.52
2023-05-04T00:09:44.582Z,82.63
2023-05-04T00:10:46.504Z,82.66
2023-05-04T00:11:48.605Z,82.03
2023-05-04T00:12:50.596Z,81.91
2023-05-04T00:13:52.512Z,81.78
2023-05-04T00:14:54.353Z,81.34
2023-05-04T00:15:56.202Z,80.99
2023-05-04T00:16:58.353Z,82.03
2023-05-04T00:18:00.371Z,82.67
2023-05-04T00:19:02.313Z,83.12
2023-05-04T00:20:04.701Z,83.20
2023-05-04T00:21:07.136Z,82.42
2023-05-04T00:22:09.397Z,82.47
2023-05-04T00:23:11.279Z,82.62
2023-05-04T00:24:13.999Z,83.24
2023-05-04T00:25:15.956Z,83.05
2023-05-04T00:26:17.813Z,81.92
2023-05-04T00:27:20.092Z,81.32
2023-05-04T00:28:21.918Z,81.11
2023-05-04T00:29:23.797Z,81.53
2023-05-04T00:30:25.684Z,81.78
2023-05-04T00:31:28.750Z,81.97
2023-05-04T00:32:31.053Z,82.38
2023-05-04T00:33:32.960Z,82.23
2023-05-04T00:34:35.228Z,81.78
2023-05-04T00:35:37.130Z,81.25
2023-05-04T00:36:39.045Z,80.86
2023-05-04T00:37:41.197Z,81.23
2023-05-04T00:38:50.167Z,82.14
2023-05-04T00:39:52.117Z,81.76
2023-05-04T00:40:54.036Z,82.60
2023-05-04T00:41:56.274Z,81.82
2023-05-04T00:42:58.427Z,81.04
2023-05-04T00:44:00.493Z,81.67
2023-05-04T00:45:02.360Z,81.65
2023-05-04T00:46:04.401Z,81.80
2023-05-04T00:47:06.653Z,81.69
2023-05-04T00:48:08.945Z,81.12
2023-05-04T00:49:11.216Z,81.50
2023-05-04T00:50:13.316Z,81.22
2023-05-04T00:51:17.235Z,81.40
2023-05-04T00:52:20.862Z,81.26
2023-05-04T00:53:23.101Z,81.39
2023-05-04T00:54:25.933Z,82.18
2023-05-04T00:55:27.822Z,82.24
2023-05-04T00:56:31.097Z,82.27
2023-05-04T00:57:33.060Z,82.68
2023-05-04T00:58:35.389Z,81.91
2023-05-04T00:59:37.357Z,81.32
2023-05-04T01:00:39.307Z,81.35
2023-05-04T01:01:42.109Z,81.27
2023-05-04T01:02:44.328Z,81.51
2023-05-04T01:03:46.535Z,81.88
2023-05-04T01:04:48.684Z,81.59
2023-05-04T01:06:08.803Z,82.06
2023-05-04T01:07:26.605Z,82.03
2023-05-04T01:08:32.794Z,81.79
2023-05-04T01:09:50.052Z,81.53
2023-05-04T01:11:02.375Z,81.53
2023-05-04T01:12:31.192Z,81.74
2023-05-04T01:13:35.090Z,82.76
2023-05-04T01:14:39.669Z,83.41
2023-05-04T01:15:42.320Z,83.40
2023-05-04T01:16:44.255Z,83.91
2023-05-04T01:17:46.338Z,83.76
2023-05-04T01:18:48.877Z,84.24
2023-05-04T01:19:53.934Z,84.15
2023-05-04T01:20:55.877Z,83.50
2023-05-04T01:21:58.917Z,83.34
2023-05-04T01:23:01.517Z,82.97
2023-05-04T01:24:03.432Z,82.65
2023-05-04T01:25:06.709Z,82.22
2023-05-04T01:26:23.155Z,82.70
2023-05-04T01:27:31.359Z,82.15
2023-05-04T01:28:44.495Z,82.28
2023-05-04T01:29:59.395Z,81.26
2023-05-04T01:31:02.836Z,81.31
2023-05-04T01:32:06.039Z,81.84
2023-05-04T01:33:08.885Z,82.08
2023-05-04T01:34:13.336Z,82.34
2023-05-04T01:35:16.304Z,82.59
2023-05-04T01:36:22.325Z,82.55
2023-05-04T01:37:24.318Z,83.07
2023-05-04T01:38:26.232Z,82.85
2023-05-04T01:39:29.985Z,82.80
2023-05-04T01:40:31.891Z,83.16
2023-05-04T01:41:34.019Z,83.21
2023-05-04T01:42:35.936Z,83.70
2023-05-04T01:43:37.861Z,84.03
2023-05-04T01:44:40.543Z,83.37
2023-05-04T01:45:42.433Z,83.20
2023-05-04T01:46:44.823Z,83.61
2023-05-04T01:47:46.846Z,83.69
2023-05-04T01:48:48.791Z,83.05
2023-05-04T01:49:50.663Z,83.52
2023-05-04T01:50:52.482Z,83.56
2023-05-04T01:51:54.658Z,83.75
2023-05-04T01:52:56.500Z,83.47
2023-05-04T01:53:58.418Z,83.30
2023-05-04T01:55:00.360Z,83.04
2023-05-04T01:56:02.224Z,82.25
2023-05-04T01:57:04.518Z,82.49
2023-05-04T01:58:06.419Z,82.40
2023-05-04T01:59:08.323Z,83.04
2023-05-04T02:00:10.826Z,82.63
2023-05-04T02:01:17.288Z,82.78
2023-05-04T02:02:19.498Z,83.88
2023-05-04T02:03:21.601Z,84.61
2023-05-04T02:04:23.629Z,83.94
2023-05-04T02:05:25.581Z,84.33
2023-05-04T02:06:27.492Z,83.64
2023-05-04T02:07:29.803Z,83.00
2023-05-04T02:08:31.769Z,83.55
2023-05-04T02:09:33.972Z,83.75
2023-05-04T02:10:35.809Z,84.18
2023-05-04T02:11:37.636Z,84.08
2023-05-04T02:12:39.973Z,82.98
2023-05-04T02:13:42.658Z,82.71
2023-05-04T02:14:44.555Z,83.20
2023-05-04T02:15:46.515Z,83.96
2023-05-04T02:16:48.384Z,83.35
2023-05-04T02:17:50.689Z,83.21
2023-05-04T02:18:52.562Z,83.45
2023-05-04T02:19:54.407Z,83.90
2023-05-04T02:20:56.253Z,83.97
2023-05-04T02:21:58.093Z,83.38
2023-05-04T02:23:00.356Z,83.78
2023-05-04T02:24:02.238Z,83.38
2023-05-04T02:25:04.552Z,83.02
2023-05-04T02:26:06.956Z,83.82
2023-05-04T02:27:08.791Z,84.21
2023-05-04T02:28:11.150Z,84.59
2023-05-04T02:29:13.040Z,84.29
2023-05-04T02:30:15.137Z,84.05
2023-05-04T02:31:17.070Z,84.01
2023-05-04T02:32:18.963Z,83.33
2023-05-04T02:33:21.059Z,83.26
2023-05-04T02:34:23.020Z,83.24
2023-05-04T02:35:25.285Z,83.41
2023-05-04T02:36:27.288Z,83.80
2023-05-04T02:37:29.252Z,83.54
2023-05-04T02:38:31.069Z,83.03
2023-05-04T02:39:32.869Z,82.58
2023-05-04T02:40:36.862Z,83.08
2023-05-04T02:41:38.856Z,83.01
2023-05-04T02:42:40.719Z,82.26
2023-05-04T02:43:42.546Z,81.98
2023-05-04T02:44:44.425Z,82.18
2023-05-04T02:45:47.134Z,82.59
2023-05-04T02:46:49.061Z,82.67
2023-05-04T02:47:51.005Z,82.87
2023-05-04T02:48:52.873Z,82.88
2023-05-04T02:49:54.689Z,82.39
2023-05-04T02:50:56.835Z,82.88
2023-05-04T02:51:58.693Z,82.57
2023-05-04T02:53:00.590Z,82.06
2023-05-04T02:54:02.603Z,81.75
2023-05-04T02:55:04.788Z,81.00
2023-05-04T02:56:07.025Z,82.09
2023-05-04T02:57:08.931Z,82.68
2023-05-04T02:58:11.428Z,82.83
2023-05-04T02:59:13.417Z,83.21
2023-05-04T03:00:15.764Z,83.79
2023-05-04T03:01:17.934Z,83.69
2023-05-04T03:02:19.853Z,83.74
2023-05-04T03:03:21.980Z,84.12
2023-05-04T03:04:23.951Z,83.74
2023-05-04T03:05:26.310Z,84.10
2023-05-04T03:06:28.413Z,83.70
2023-05-04T03:07:30.363Z,83.64
2023-05-04T03:08:32.284Z,83.75
2023-05-04T03:09:34.145Z,83.27
2023-05-04T03:10:36.269Z,82.74
2023-05-04T03:11:38.367Z,82.94
2023-05-04T03:12:40.975Z,83.15
2023-05-04T03:13:43.184Z,82.45
2023-05-04T03:14:46.265Z,82.23
2023-05-04T03:15:48.163Z,82.43
2023-05-04T03:16:50.568Z,83.91
2023-05-04T03:17:52.544Z,83.93
2023-05-04T03:18:54.393Z,84.45
2023-05-04T03:19:56.328Z,84.05
2023-05-04T03:20:58.248Z,83.67
2023-05-04T03:22:00.530Z,83.39
2023-05-04T03:23:02.428Z,82.78
2023-05-04T03:24:05.270Z,83.20
2023-05-04T03:25:08.342Z,84.09
2023-05-04T03:26:10.585Z,84.38
2023-05-04T03:27:12.967Z,84.84
2023-05-04T03:28:14.899Z,84.42
2023-05-04T03:29:16.975Z,84.65
2023-05-04T03:30:19.143Z,84.48
2023-05-04T03:31:21.519Z,83.69
2023-05-04T03:32:24.931Z,83.92
2023-05-04T03:33:26.917Z,84.61
2023-05-04T03:34:29.583Z,84.50
2023-05-04T03:35:33.783Z,84.18
2023-05-04T03:36:36.498Z,84.27
2023-05-04T03:37:38.822Z,84.83
2023-05-04T03:38:41.708Z,84.80
2023-05-04T03:39:43.574Z,84.12
2023-05-04T03:40:45.890Z,84.12
2023-05-04T03:41:48.002Z,83.82
2023-05-04T03:42:52.345Z,84.47
2023-05-04T03:43:54.437Z,84.39
2023-05-04T03:44:56.297Z,84.21
2023-05-04T03:45:58.187Z,83.90
2023-05-04T03:47:00.037Z,84.09
2023-05-04T03:48:02.874Z,84.52
2023-05-04T03:49:04.924Z,84.91
2023-05-04T03:50:07.600Z,84.80
2023-05-04T03:51:09.606Z,85.18
2023-05-04T03:52:11.575Z,84.83
2023-05-04T03:53:13.799Z,84.55
2023-05-04T03:54:16.951Z,85.08
2023-05-04T03:55:19.262Z,84.80
2023-05-04T03:56:23.675Z,84.90
2023-05-04T03:57:25.613Z,85.08
2023-05-04T03:58:29.397Z,85.28
2023-05-04T03:59:33.242Z,84.88
2023-05-04T04:00:37.360Z,84.65
2023-05-04T04:01:41.025Z,84.14
2023-05-04T04:02:43.008Z,84.26
2023-05-04T04:03:48.217Z,83.70
2023-05-04T04:04:50.128Z,84.56
2023-05-04T04:05:52.550Z,84.62
2023-05-04T04:06:54.697Z,84.31
2023-05-04T04:07:56.860Z,84.52
2023-05-04T04:08:58.772Z,84.93
2023-05-04T04:10:00.819Z,83.38
2023-05-04T04:11:03.124Z,83.87
2023-05-04T04:12:05.539Z,84.37
2023-05-04T04:13:07.372Z,84.69
2023-05-04T04:14:09.290Z,83.87
2023-05-04T04:15:11.801Z,83.62
2023-05-04T04:16:13.638Z,83.37
2023-05-04T04:17:15.932Z,83.08
2023-05-04T04:18:17.986Z,82.67
2023-05-04T04:19:19.911Z,82.65
2023-05-04T04:20:21.793Z,82.61
2023-05-04T04:21:23.767Z,82.36
2023-05-04T04:22:26.384Z,82.45
2023-05-04T04:23:28.201Z,82.65
2023-05-04T04:24:30.013Z,82.95
2023-05-04T04:25:32.096Z,82.85
2023-05-04T04:26:34.119Z,82.27
2023-05-04T04:27:37.132Z,81.99
2023-05-04T04:28:38.972Z,81.68
2023-05-04T04:29:40.883Z,81.12
2023-05-04T04:30:42.809Z,81.12
2023-05-04T04:31:44.690Z,80.73
2023-05-04T04:32:47.183Z,80.81
2023-05-04T04:33:52.689Z,80.83
2023-05-04T04:34:54.577Z,80.51
2023-05-04T04:35:56.674Z,81.02
2023-05-04T04:36:58.906Z,80.87
2023-05-04T04:38:03.612Z,81.26
2023-05-04T04:39:06.242Z,80.68
2023-05-04T04:40:09.048Z,80.25
2023-05-04T04:41:11.145Z,79.71
2023-05-04T04:42:13.491Z,79.93
2023-05-04T04:43:15.704Z,80.46
2023-05-04T04:44:20.120Z,80.15
2023-05-04T04:45:22.092Z,80.93
2023-05-04T04:46:25.200Z,80.61
2023-05-04T04:47:27.119Z,79.95
2023-05-04T04:48:29.441Z,80.06
2023-05-04T04:49:31.352Z,79.50
2023-05-04T04:50:33.318Z,79.35
2023-05-04T04:51:35.979Z,79.39
2023-05-04T04:52:38.142Z,80.35
2023-05-04T04:53:40.683Z,79.52
2023-05-04T04:54:42.573Z,78.98
2023-05-04T04:55:44.512Z,78.91
2023-05-04T04:56:46.358Z,78.27
2023-05-04T04:57:48.219Z,77.73
2023-05-04T04:58:50.893Z,77.82
2023-05-04T04:59:53.316Z,77.05
2023-05-04T05:00:55.952Z,76.33
2023-05-04T05:01:57.815Z,76.21
2023-05-04T05:02:59.885Z,76.16
2023-05-04T05:04:02.149Z,76.99
2023-05-04T05:05:04.413Z,75.30
2023-05-04T05:06:06.353Z,75.42
2023-05-04T05:07:11.041Z,75.52
2023-05-04T05:08:12.931Z,75.16
2023-05-04T05:09:15.674Z,74.13
2023-05-04T05:10:17.719Z,74.10
2023-05-04T05:11:19.608Z,73.74
2023-05-04T05:12:21.528Z,73.05
2023-05-04T05:13:23.407Z,72.12
2023-05-04T05:14:25.602Z,73.13
2023-05-04T05:15:27.481Z,73.53
2023-05-04T05:16:29.399Z,73.59
2023-05-04T05:17:31.494Z,73.23
2023-05-04T05:18:33.382Z,72.91
2023-05-04T05:19:37.313Z,72.96
2023-05-04T05:20:39.238Z,73.25
2023-05-04T05:21:41.094Z,72.23
2023-05-04T05:22:43.107Z,71.87
2023-05-04T05:23:44.970Z,75.49
2023-05-04T05:24:47.151Z,70.77
2023-05-04T05:25:49.030Z,70.24
2023-05-04T05:26:52.972Z,69.51
2023-05-04T05:27:54.858Z,69.01
2023-05-04T05:28:56.968Z,68.29
2023-05-04T05:29:59.241Z,69.31
2023-05-04T05:31:01.106Z,68.91
2023-05-04T05:32:03.915Z,69.01
2023-05-04T05:33:05.809Z,68.59
2023-05-04T05:34:07.765Z,68.64
2023-05-04T05:35:10.231Z,68.55
2023-05-04T05:36:12.249Z,68.54
2023-05-04T05:37:14.106Z,67.81
2023-05-04T05:38:16.313Z,67.25
2023-05-04T05:39:18.241Z,67.11
2023-05-04T05:40:20.592Z,68.69
2023-05-04T05:41:22.762Z,71.13
2023-05-04T05:42:24.758Z,68.81
2023-05-04T05:43:27.097Z,63.17
2023-05-04T05:44:29.106Z,63.99
2023-05-04T05:45:31.236Z,63.57
2023-05-04T05:46:33.253Z,62.47
2023-05-04T05:47:35.109Z,63.49
2023-05-04T05:48:37.045Z,62.36
2023-05-04T05:49:38.977Z,62.71
2023-05-04T05:50:41.541Z,62.22
2023-05-04T05:51:43.426Z,61.83
2023-05-04T05:52:45.541Z,62.46
2023-05-04T05:53:47.344Z,62.34
2023-05-04T05:54:49.224Z,61.92
2023-05-04T05:55:51.333Z,62.39
2023-05-04T05:56:53.192Z,60.76
2023-05-04T05:57:55.074Z,61.12
2023-05-04T05:58:56.944Z,60.21
2023-05-04T05:59:58.756Z,59.80
2023-05-04T06:01:00.891Z,59.45
2023-05-04T06:02:03.062Z,59.39
2023-05-04T06:03:05.035Z,59.70
2023-05-04T06:04:07.051Z,59.63
2023-05-04T06:05:10.507Z,60.08
2023-05-04T06:06:12.565Z,60.00
2023-05-04T06:07:14.738Z,58.21
2023-05-04T06:08:16.617Z,57.71
2023-05-04T06:09:19.202Z,57.83
2023-05-04T06:10:21.025Z,57.98
2023-05-04T06:11:22.948Z,58.09
2023-05-04T06:12:25.302Z,58.35
2023-05-04T06:13:27.168Z,57.06
2023-05-04T06:14:28.954Z,56.77
2023-05-04T06:15:30.812Z,56.82
2023-05-04T06:16:33.067Z,55.39
2023-05-04T06:17:35.651Z,55.93
2023-05-04T06:18:37.454Z,54.31
2023-05-04T06:19:39.501Z,54.50
2023-05-04T06:20:41.352Z,55.81
2023-05-04T06:21:43.174Z,56.06
2023-05-04T06:22:45.602Z,55.45
2023-05-04T06:23:47.806Z,55.24
2023-05-04T06:24:49.740Z,54.79
2023-05-04T06:25:51.775Z,55.35
2023-05-04T06:26:53.721Z,55.95
2023-05-04T06:27:55.941Z,56.41
2023-05-04T06:28:57.839Z,55.11
2023-05-04T06:30:00.044Z,54.31
2023-05-04T06:31:02.484Z,54.26
2023-05-04T06:32:04.772Z,53.69
2023-05-04T06:33:07.151Z,53.42
2023-05-04T06:34:09.147Z,53.68
2023-05-04T06:35:10.977Z,54.46
2023-05-04T06:36:14.117Z,53.92
2023-05-04T06:37:16.229Z,53.67
2023-05-04T06:38:18.430Z,54.69
2023-05-04T06:39:20.256Z,53.58
2023-05-04T06:40:22.183Z,53.19
2023-05-04T06:41:24.776Z,52.45
2023-05-04T06:42:31.552Z,51.18
2023-05-04T06:43:34.095Z,51.38
2023-05-04T06:44:39.574Z,51.34
2023-05-04T06:45:41.555Z,51.81
2023-05-04T06:46:43.407Z,51.35
2023-05-04T06:47:45.717Z,51.23
2023-05-04T06:48:47.833Z,52.10
2023-05-04T06:49:49.926Z,53.03
2023-05-04T06:50:51.774Z,52.73
2023-05-04T06:51:53.608Z,52.66
2023-05-04T06:53:06.834Z,52.29
2023-05-04T06:54:09.076Z,51.64
2023-05-04T06:55:11.293Z,51.74
2023-05-04T06:56:13.256Z,51.16
2023-05-04T06:57:15.271Z,51.19
2023-05-04T06:58:21.834Z,52.01
2023-05-04T06:59:24.154Z,51.79
2023-05-04T07:00:26.953Z,51.16
2023-05-04T07:01:29.200Z,52.39
2023-05-04T07:02:31.172Z,51.28
2023-05-04T07:03:33.086Z,51.42
2023-05-04T07:04:35.568Z,50.96
2023-05-04T07:05:37.745Z,50.67
2023-05-04T07:06:39.810Z,50.31
2023-05-04T07:07:41.678Z,50.94
2023-05-04T07:08:43.555Z,50.29
2023-05-04T07:09:47.956Z,49.64
2023-05-04T07:10:49.939Z,49.83
2023-05-04T07:11:51.808Z,49.07
2023-05-04T07:12:53.727Z,49.82
2023-05-04T07:13:55.977Z,49.83
2023-05-04T07:14:58.072Z,49.55
2023-05-04T07:15:59.905Z,49.10
2023-05-04T07:17:01.774Z,48.69
2023-05-04T07:18:03.717Z,49.34
2023-05-04T07:19:05.663Z,48.69
2023-05-04T07:20:08.605Z,48.52
2023-05-04T07:21:26.734Z,49.04
2023-05-04T07:22:31.214Z,48.38
2023-05-04T07:23:33.050Z,48.24
2023-05-04T07:24:34.970Z,48.61
2023-05-04T07:25:37.221Z,48.98
2023-05-04T07:26:39.011Z,48.04
2023-05-04T07:27:43.758Z,48.60
2023-05-04T07:28:45.665Z,47.88
2023-05-04T07:29:48.181Z,47.62
2023-05-04T07:30:50.401Z,48.17
2023-05-04T07:31:52.280Z,48.56
2023-05-04T07:32:54.304Z,48.58
2023-05-04T07:33:56.233Z,48.38
2023-05-04T07:34:58.164Z,47.74
2023-05-04T07:36:00.465Z,48.20
2023-05-04T07:37:05.472Z,48.69
2023-05-04T07:38:08.260Z,49.15
2023-05-04T07:39:10.223Z,49.15
2023-05-04T07:40:14.654Z,49.76
2023-05-04T07:41:16.796Z,49.21
2023-05-04T07:42:18.748Z,49.62
2023-05-04T07:43:21.224Z,50.25
2023-05-04T07:44:23.243Z,49.02
2023-05-04T07:45:25.047Z,47.84
2023-05-04T07:46:27.225Z,47.33
2023-05-04T07:47:29.155Z,48.08
2023-05-04T07:48:31.282Z,47.41
2023-05-04T07:49:33.264Z,47.18
2023-05-04T07:50:35.588Z,47.59
2023-05-04T07:51:38.195Z,46.41
2023-05-04T07:52:40.072Z,46.67
2023-05-04T07:53:43.184Z,46.13
2023-05-04T07:54:45.069Z,46.43
2023-05-04T07:55:47.722Z,45.66
2023-05-04T07:56:50.096Z,46.18
2023-05-04T07:57:52.037Z,45.94
2023-05-04T07:58:54.024Z,45.07
2023-05-04T07:59:56.161Z,44.24
2023-05-04T08:00:57.979Z,44.03
2023-05-04T08:02:00.104Z,44.87
2023-05-04T08:03:02.104Z,45.91
2023-05-04T08:04:04.211Z,46.55
2023-05-04T08:05:07.156Z,46.02
2023-05-04T08:06:09.009Z,45.78
2023-05-04T08:07:11.172Z,45.97
2023-05-04T08:08:12.976Z,45.63
2023-05-04T08:09:15.145Z,45.95
2023-05-04T08:10:17.355Z,45.42
2023-05-04T08:11:21.219Z,45.61
2023-05-04T08:12:24.284Z,45.35
2023-05-04T08:13:26.156Z,46.11
2023-05-04T08:14:28.020Z,45.26
2023-05-04T08:15:29.902Z,44.75
2023-05-04T08:16:32.407Z,45.24
2023-05-04T08:17:39.482Z,45.10
2023-05-04T08:18:41.390Z,45.90
2023-05-04T08:19:44.032Z,44.54
2023-05-04T08:20:45.982Z,44.05
2023-05-04T08:21:48.405Z,43.84
2023-05-04T08:22:51.080Z,43.20
2023-05-04T08:23:53.517Z,43.06
2023-05-04T08:24:55.419Z,43.22
2023-05-04T08:25:57.325Z,42.91
2023-05-04T08:27:07.058Z,42.39
2023-05-04T08:28:10.694Z,42.06
2023-05-04T08:29:12.544Z,42.37
2023-05-04T08:30:14.769Z,42.32
2023-05-04T08:31:18.548Z,42.63
2023-05-04T08:32:20.436Z,42.56
2023-05-04T08:33:22.715Z,41.38
2023-05-04T08:34:25.056Z,40.65
2023-05-04T08:35:27.920Z,41.42
2023-05-04T08:36:30.187Z,43.14
2023-05-04T08:37:32.642Z,42.99
2023-05-04T08:38:35.036Z,41.09
2023-05-04T08:39:38.360Z,41.29
2023-05-04T08:40:44.492Z,40.96
2023-05-04T08:41:46.365Z,41.25
2023-05-04T08:42:50.555Z,40.84
2023-05-04T08:43:52.848Z,41.18
2023-05-04T08:44:56.202Z,41.43
2023-05-04T08:45:58.151Z,41.40
2023-05-04T08:47:04.435Z,40.43
2023-05-04T08:48:07.680Z,41.38
2023-05-04T08:49:10.670Z,42.16
2023-05-04T08:50:13.390Z,42.86
2023-05-04T08:51:15.552Z,42.30
2023-05-04T08:52:19.068Z,41.23
2023-05-04T08:53:21.944Z,41.04
2023-05-04T08:54:25.849Z,40.97
2023-05-04T08:55:27.936Z,40.13
2023-05-04T08:56:30.682Z,40.24
2023-05-04T08:57:33.500Z,40.02
2023-05-04T08:58:38.248Z,40.45
2023-05-04T08:59:41.544Z,40.48
2023-05-04T09:00:43.972Z,40.04
2023-05-04T09:01:50.142Z,40.82
2023-05-04T09:02:53.086Z,41.75
2023-05-04T09:03:55.667Z,40.80
2023-05-04T09:04:58.296Z,40.59
2023-05-04T09:06:00.872Z,41.12
2023-05-04T09:07:03.437Z,40.82
2023-05-04T09:08:05.767Z,41.12
2023-05-04T09:09:08.692Z,40.23
2023-05-04T09:10:11.027Z,40.38
2023-05-04T09:11:13.744Z,40.29
2023-05-04T09:12:17.071Z,40.29
2023-05-04T09:13:18.939Z,41.22
2023-05-04T09:14:22.447Z,40.19
2023-05-04T09:15:24.719Z,40.86
2023-05-04T09:16:35.184Z,41.10
2023-05-04T09:17:44.598Z,40.46
2023-05-04T09:18:53.110Z,41.00
2023-05-04T09:19:59.696Z,39.84
2023-05-04T09:21:01.829Z,39.39
2023-05-04T09:22:15.031Z,40.28
2023-05-04T09:23:18.175Z,40.91
2023-05-04T09:24:30.612Z,40.05
2023-05-04T09:25:47.404Z,40.60
2023-05-04T09:26:49.595Z,40.99
2023-05-04T09:27:54.843Z,40.72
2023-05-04T09:28:57.345Z,41.35
2023-05-04T09:29:59.174Z,40.25
2023-05-04T09:31:02.508Z,40.02
2023-05-04T09:32:05.002Z,40.25
2023-05-04T09:33:06.850Z,40.60
2023-05-04T09:34:09.985Z,40.28
2023-05-04T09:35:18.726Z,40.32
2023-05-04T09:36:27.479Z,39.66
2023-05-04T09:37:29.742Z,39.45
2023-05-04T09:38:32.571Z,39.27
2023-05-04T09:39:34.383Z,39.44
2023-05-04T09:40:37.724Z,38.90
2023-05-04T09:41:39.736Z,39.74
2023-05-04T09:42:42.677Z,39.05
2023-05-04T09:43:44.888Z,40.15
2023-05-04T09:44:47.004Z,39.36
2023-05-04T09:45:49.106Z,38.66
2023-05-04T09:46:58.760Z,39.44
2023-05-04T09:48:01.434Z,38.97
2023-05-04T09:49:03.662Z,38.91
2023-05-04T09:50:19.919Z,39.13
2023-05-04T09:51:27.548Z,38.55
2023-05-04T09:52:32.027Z,39.98
2023-05-04T09:53:40.113Z,40.41
2023-05-04T09:54:44.648Z,40.95
2023-05-04T09:55:51.419Z,40.86
2023-05-04T09:56:59.550Z,40.70
2023-05-04T09:58:01.873Z,39.57
2023-05-04T09:59:05.310Z,39.44
2023-05-04T10:00:12.873Z,38.69
2023-05-04T10:01:16.177Z,39.16
2023-05-04T10:02:23.287Z,39.11
2023-05-04T10:03:27.012Z,37.88
2023-05-04T10:04:29.009Z,38.22
2023-05-04T10:05:31.061Z,36.30
2023-05-04T10:06:33.936Z,36.61
2023-05-04T10:07:36.575Z,36.68
2023-05-04T10:08:40.134Z,37.01
2023-05-04T10:09:42.280Z,37.32
2023-05-04T10:10:44.458Z,37.22
2023-05-04T10:11:46.572Z,37.81
2023-05-04T10:12:48.512Z,37.90
2023-05-04T10:13:50.840Z,38.77
2023-05-04T10:14:53.557Z,38.86
2023-05-04T10:16:01.438Z,38.71
2023-05-04T10:17:13.687Z,39.21
2023-05-04T10:18:44.982Z,39.02
2023-05-04T10:20:11.795Z,39.42
2023-05-04T10:21:22.340Z,38.80
2023-05-04T10:22:46.347Z,38.24
2023-05-04T10:24:15.591Z,37.90
2023-05-04T10:25:24.700Z,38.73
2023-05-04T10:26:50.239Z,38.24
2023-05-04T10:27:54.806Z,40.86
2023-05-04T10:29:04.948Z,39.85
2023-05-04T10:30:07.692Z,39.47
2023-05-04T10:31:09.673Z,39.22
2023-05-04T10:32:22.090Z,39.88
2023-05-04T10:33:37.853Z,39.67
2023-05-04T10:34:39.725Z,39.38
2023-05-04T10:35:54.489Z,39.62
2023-05-04T10:36:57.698Z,40.83
2023-05-04T10:37:59.632Z,40.54
2023-05-04T10:39:01.835Z,40.50
2023-05-04T10:40:10.954Z,41.43
2023-05-04T10:41:20.291Z,40.84
2023-05-04T10:42:22.271Z,41.40
2023-05-04T10:43:24.343Z,42.08
2023-05-04T10:44:28.570Z,42.30
2023-05-04T10:45:41.746Z,41.94
2023-05-04T10:46:43.959Z,42.43
2023-05-04T10:47:45.877Z,42.68
2023-05-04T10:48:48.369Z,42.22
2023-05-04T10:50:07.978Z,41.84
2023-05-04T10:51:30.140Z,42.41
2023-05-04T10:52:53.881Z,41.94
2023-05-04T10:53:55.848Z,42.24
2023-05-04T10:55:02.402Z,41.09
2023-05-04T10:56:04.501Z,40.52
2023-05-04T10:57:14.673Z,40.10
2023-05-04T10:58:19.150Z,40.35
2023-05-04T10:59:21.373Z,40.38
2023-05-04T11:00:35.563Z,40.95
2023-05-04T11:01:46.467Z,38.96
2023-05-04T11:02:49.554Z,39.58
2023-05-04T11:03:52.985Z,40.02
2023-05-04T11:05:05.835Z,40.64
2023-05-04T11:06:24.017Z,40.24
2023-05-04T11:07:38.215Z,39.46
2023-05-04T11:08:40.603Z,39.51
2023-05-04T11:09:44.410Z,40.04
2023-05-04T11:10:47.573Z,39.37
2023-05-04T11:11:49.902Z,38.46
2023-05-04T11:12:52.791Z,38.40
2023-05-04T11:13:54.708Z,38.66
2023-05-04T11:15:10.155Z,38.45
2023-05-04T11:16:13.159Z,38.88
2023-05-04T11:18:28.661Z,38.20
2023-05-04T11:19:30.565Z,38.18
2023-05-04T11:20:32.558Z,38.27
2023-05-04T11:21:34.543Z,38.55
2023-05-04T11:22:37.528Z,38.05
2023-05-04T11:23:39.523Z,37.88
2023-05-04T11:24:43.305Z,36.92
2023-05-04T11:25:45.368Z,37.49
2023-05-04T11:26:49.180Z,37.67
2023-05-04T11:27:51.533Z,38.40
2023-05-04T11:28:53.627Z,38.43
2023-05-04T11:30:00.772Z,38.70
2023-05-04T11:31:15.528Z,38.35
2023-05-04T11:32:18.120Z,38.73
2023-05-04T11:33:20.392Z,38.80
2023-05-04T11:34:22.471Z,38.86
2023-05-04T11:35:25.076Z,38.57
2023-05-04T11:36:27.308Z,39.50
2023-05-04T11:37:29.860Z,40.02
2023-05-04T11:38:32.128Z,38.89
2023-05-04T11:39:34.001Z,38.82
2023-05-04T11:40:37.468Z,39.58
2023-05-04T11:41:39.531Z,39.18
2023-05-04T11:42:42.877Z,39.66
2023-05-04T11:43:46.635Z,39.83
2023-05-04T11:44:49.288Z,39.58
2023-05-04T11:45:52.703Z,40.23
2023-05-04T11:46:56.260Z,39.80
2023-05-04T11:47:59.438Z,39.98
2023-05-04T11:49:03.887Z,39.76
2023-05-04T11:50:07.454Z,41.28
2023-05-04T11:51:09.382Z,40.42
2023-05-04T11:52:12.189Z,40.43
2023-05-04T11:53:14.109Z,40.27
2023-05-04T11:54:21.681Z,40.51
2023-05-04T11:55:28.960Z,40.59
2023-05-04T11:56:40.797Z,40.75
2023-05-04T11:57:42.735Z,41.41
2023-05-04T11:58:44.800Z,42.00
2023-05-04T11:59:50.320Z,41.04
2023-05-04T12:00:57.047Z,40.80
2023-05-04T12:01:59.428Z,41.06
2023-05-04T12:03:01.629Z,41.20
2023-05-04T12:04:04.650Z,42.18
2023-05-04T12:05:12.982Z,41.76
2023-05-04T12:06:15.088Z,40.91
2023-05-04T12:07:17.298Z,41.57
2023-05-04T12:08:31.878Z,40.90
2023-05-04T12:09:45.034Z,40.31
2023-05-04T12:10:46.972Z,40.43
2023-05-04T12:11:57.998Z,40.19
2023-05-04T12:13:03.220Z,40.76
2023-05-04T12:14:07.721Z,40.98
2023-05-04T12:15:11.296Z,40.48
2023-05-04T12:16:23.435Z,40.59
2023-05-04T12:17:25.486Z,41.21
2023-05-04T12:18:29.861Z,41.22
2023-05-04T12:19:31.969Z,41.67
2023-05-04T12:20:33.943Z,41.38
2023-05-04T12:21:36.184Z,42.77
2023-05-04T12:22:38.331Z,41.86
2023-05-04T12:23:41.660Z,42.00
2023-05-04T12:24:43.578Z,43.12
2023-05-04T12:25:57.323Z,43.12
2023-05-04T12:27:00.100Z,43.33
2023-05-04T12:28:02.965Z,42.88
2023-05-04T12:29:05.181Z,42.66
2023-05-04T12:30:07.600Z,42.48
2023-05-04T12:31:10.203Z,41.49
2023-05-04T12:32:12.134Z,41.05
2023-05-04T12:33:14.018Z,41.05
2023-05-04T12:34:16.248Z,40.33
2023-05-04T12:35:18.066Z,39.83
2023-05-04T12:36:19.988Z,39.42
2023-05-04T12:37:23.824Z,39.08
2023-05-04T12:38:27.860Z,39.50
2023-05-04T12:39:32.122Z,39.93
2023-05-04T12:40:34.148Z,39.64
2023-05-04T12:41:35.999Z,39.83
2023-05-04T12:42:37.855Z,39.39
2023-05-04T12:43:40.405Z,40.81
2023-05-04T12:44:42.627Z,40.85
2023-05-04T12:45:44.484Z,40.53
2023-05-04T12:46:46.324Z,41.05
2023-05-04T12:47:48.188Z,41.58
2023-05-04T12:48:50.069Z,41.62
2023-05-04T12:49:52.226Z,41.67
2023-05-04T12:50:54.273Z,42.10
2023-05-04T12:51:56.080Z,42.02
2023-05-04T12:52:58.050Z,42.10
2023-05-04T12:54:00.015Z,41.90
2023-05-04T12:55:02.156Z,41.50
2023-05-04T12:56:04.146Z,41.26
2023-05-04T12:57:06.068Z,40.69
2023-05-04T12:58:08.149Z,41.90
2023-05-04T12:59:10.779Z,41.27
2023-05-04T13:00:15.028Z,40.04
2023-05-04T13:01:17.224Z,40.20
2023-05-04T13:02:19.101Z,40.79
2023-05-04T13:03:21.771Z,41.58
2023-05-04T13:04:23.814Z,41.09
2023-05-04T13:05:26.187Z,40.82
2023-05-04T13:06:28.015Z,41.16
2023-05-04T13:07:30.399Z,42.15
2023-05-04T13:08:33.577Z,41.91
2023-05-04T13:09:35.579Z,42.48
2023-05-04T13:10:37.728Z,41.39
2023-05-04T13:11:39.577Z,41.38
2023-05-04T13:12:41.884Z,40.01
2023-05-04T13:13:45.737Z,39.91
2023-05-04T13:14:47.644Z,40.49
2023-05-04T13:15:50.594Z,41.08
2023-05-04T13:16:52.723Z,42.10
2023-05-04T13:17:54.651Z,42.21
2023-05-04T13:18:57.920Z,41.39
2023-05-04T13:20:00.294Z,41.07
2023-05-04T13:21:02.464Z,40.44
2023-05-04T13:22:05.005Z,41.77
2023-05-04T13:23:07.030Z,41.58
2023-05-04T13:24:09.170Z,40.61
2023-05-04T13:25:11.117Z,40.16
2023-05-04T13:26:13.243Z,40.00
2023-05-04T13:27:15.073Z,39.86
2023-05-04T13:28:17.669Z,39.32
2023-05-04T13:29:19.543Z,40.02
2023-05-04T13:30:21.995Z,40.26
2023-05-04T13:31:24.467Z,40.13
2023-05-04T13:32:27.497Z,39.26
2023-05-04T13:33:30.726Z,38.93
2023-05-04T13:34:34.297Z,38.72
2023-05-04T13:35:36.139Z,38.67
2023-05-04T13:36:38.230Z,38.45
2023-05-04T13:37:40.084Z,38.37